createdAt,value
2018-03-07T00:00:25.741Z,6.30
2018-03-07T00:01:25.952Z,6.60
2018-03-07T00:02:26.165Z,6.80
2018-03-07T00:03:26.371Z,6.50
2018-03-07T00:05:58.122Z,7.00
2018-03-07T00:06:58.339Z,6.40
2018-03-07T00:07:58.552Z,6.50
2018-03-07T00:08:58.765Z,6.60
2018-03-07T00:09:58.976Z,6.20
2018-03-07T00:10:59.187Z,6.60
2018-03-07T00:11:59.399Z,6.70
2018-03-07T00:12:59.612Z,6.60
2018-03-07T00:13:59.823Z,7.10
2018-03-07T00:15:00.035Z,7.00
2018-03-07T00:16:00.246Z,6.20
2018-03-07T00:17:00.458Z,6.70
2018-03-07T00:18:00.669Z,6.30
2018-03-07T00:19:00.881Z,6.40
2018-03-07T00:20:01.093Z,6.90
2018-03-07T00:21:01.305Z,6.90
2018-03-07T00:22:01.537Z,6.50
2018-03-07T00:23:01.727Z,6.40
2018-03-07T00:24:01.939Z,6.50
2018-03-07T00:25:02.151Z,6.20
2018-03-07T00:26:02.363Z,7.10
2018-03-07T00:27:02.574Z,6.70
2018-03-07T00:28:02.785Z,6.90
2018-03-07T00:29:02.996Z,6.60
2018-03-07T00:30:03.209Z,6.70
2018-03-07T00:31:03.422Z,6.50
2018-03-07T00:32:03.633Z,6.50
2018-03-07T00:33:03.844Z,6.20
2018-03-07T00:34:04.057Z,6.80
2018-03-07T00:35:04.268Z,6.50
2018-03-07T00:36:04.479Z,6.60
2018-03-07T00:37:04.690Z,6.20
2018-03-07T00:38:04.902Z,6.90
2018-03-07T00:39:05.117Z,6.30
2018-03-07T00:40:05.326Z,6.90
2018-03-07T00:41:05.537Z,6.80
2018-03-07T00:42:05.749Z,6.80
2018-03-07T00:43:05.960Z,6.80
2018-03-07T00:44:06.172Z,6.30
2018-03-07T00:45:06.385Z,6.90
2018-03-07T00:46:06.599Z,6.60
2018-03-07T00:47:06.807Z,6.60
2018-03-07T00:48:07.015Z,6.50
2018-03-07T00:49:07.230Z,6.40
2018-03-07T00:50:07.442Z,6.50
2018-03-07T00:51:07.654Z,6.50
2018-03-07T00:52:07.865Z,6.60
2018-03-07T00:53:08.076Z,6.70
2018-03-07T00:54:08.288Z,6.90
2018-03-07T00:55:08.502Z,6.60
2018-03-07T00:56:08.712Z,6.50
2018-03-07T00:57:08.924Z,6.30
2018-03-07T00:58:09.136Z,6.70
2018-03-07T00:59:09.348Z,6.30
2018-03-07T01:00:09.564Z,6.70
2018-03-07T01:01:09.772Z,6.10
2018-03-07T01:02:09.983Z,6.10
2018-03-07T01:03:10.195Z,6.10
2018-03-07T01:04:10.406Z,6.80
2018-03-07T01:05:10.618Z,6.60
2018-03-07T01:06:10.832Z,6.60
2018-03-07T01:07:11.043Z,6.70
2018-03-07T01:08:11.255Z,6.70
2018-03-07T01:09:11.467Z,6.40
2018-03-07T01:10:11.679Z,6.30
2018-03-07T01:11:11.890Z,6.50
2018-03-07T01:12:12.100Z,6.70
2018-03-07T01:13:12.313Z,6.50
2018-03-07T01:14:12.524Z,6.20
2018-03-07T01:15:12.735Z,6.20
2018-03-07T01:16:12.947Z,6.60
2018-03-07T01:17:13.159Z,6.60
2018-03-07T01:18:13.373Z,6.10
2018-03-07T01:19:13.581Z,6.60
2018-03-07T01:20:13.792Z,6.20
2018-03-07T01:21:14.359Z,6.50
2018-03-07T01:22:14.215Z,6.50
2018-03-07T01:23:14.427Z,6.60
2018-03-07T01:24:14.638Z,6.70
2018-03-07T01:25:14.850Z,6.70
2018-03-07T01:26:15.062Z,6.40
2018-03-07T01:27:15.274Z,6.40
2018-03-07T01:28:15.485Z,6.30
2018-03-07T01:29:15.696Z,6.50
2018-03-07T01:30:15.908Z,6.40
2018-03-07T01:31:16.120Z,6.00
2018-03-07T01:32:16.332Z,6.50
2018-03-07T01:33:16.544Z,6.60
2018-03-07T01:34:16.754Z,6.40
2018-03-07T01:35:16.965Z,6.80
2018-03-07T01:36:17.178Z,6.30
2018-03-07T01:37:24.513Z,6.20
2018-03-07T01:38:24.739Z,6.50
2018-03-07T01:39:24.020Z,6.60
2018-03-07T01:40:24.229Z,6.40
2018-03-07T01:41:25.370Z,6.50
2018-03-07T01:42:25.595Z,6.50
2018-03-07T01:43:25.819Z,6.60
2018-03-07T01:44:26.050Z,6.50
2018-03-07T01:45:19.151Z,6.90
2018-03-07T01:46:19.363Z,6.10
2018-03-07T01:47:19.577Z,6.70
2018-03-07T01:48:19.784Z,6.40
2018-03-07T01:49:19.996Z,6.60
2018-03-07T01:50:20.208Z,6.30
2018-03-07T01:51:20.419Z,6.80
2018-03-07T01:52:20.630Z,6.70
2018-03-07T01:53:20.841Z,6.70
2018-03-07T01:54:21.052Z,6.70
2018-03-07T01:55:21.264Z,6.40
2018-03-07T01:56:21.475Z,6.70
2018-03-07T01:57:21.685Z,6.20
2018-03-07T01:58:21.900Z,6.10
2018-03-07T01:59:22.114Z,7.00
2018-03-07T02:00:22.320Z,6.60
2018-03-07T02:01:22.535Z,6.30
2018-03-07T02:02:22.742Z,6.60
2018-03-07T02:03:22.954Z,6.20
2018-03-07T02:04:23.162Z,6.60
2018-03-07T02:05:23.374Z,6.90
2018-03-07T02:06:23.585Z,6.60
2018-03-07T02:07:23.797Z,6.10
2018-03-07T02:08:24.007Z,6.30
2018-03-07T02:09:24.220Z,6.40
2018-03-07T02:10:33.321Z,6.80
2018-03-07T02:11:24.643Z,6.80
2018-03-07T02:12:24.851Z,6.30
2018-03-07T02:13:25.063Z,6.20
2018-03-07T02:14:25.272Z,6.90
2018-03-07T02:15:25.485Z,6.70
2018-03-07T02:16:25.695Z,6.90
2018-03-07T02:17:25.906Z,6.10
2018-03-07T02:18:26.118Z,6.70
2018-03-07T02:19:26.330Z,6.50
2018-03-07T02:20:26.542Z,6.30
2018-03-07T02:21:26.753Z,6.70
2018-03-07T02:22:27.002Z,7.00
2018-03-07T02:23:27.213Z,6.60
2018-03-07T02:24:27.424Z,6.70
2018-03-07T02:25:27.633Z,6.50
2018-03-07T02:26:27.846Z,6.20
2018-03-07T02:27:28.063Z,6.80
2018-03-07T02:28:28.264Z,6.80
2018-03-07T02:29:28.481Z,6.30
2018-03-07T02:30:28.679Z,7.20
2018-03-07T02:31:28.890Z,6.50
2018-03-07T02:32:29.101Z,6.70
2018-03-07T02:33:29.313Z,6.90
2018-03-07T02:34:29.525Z,6.50
2018-03-07T02:35:29.736Z,6.70
2018-03-07T02:36:29.948Z,6.30
2018-03-07T02:37:30.158Z,6.30
2018-03-07T02:38:30.379Z,6.60
2018-03-07T02:39:30.580Z,6.90
2018-03-07T02:40:30.792Z,6.80
2018-03-07T02:41:31.003Z,6.70
2018-03-07T02:42:31.219Z,6.60
2018-03-07T02:43:31.426Z,6.50
2018-03-07T02:44:31.637Z,6.80
2018-03-07T02:45:31.848Z,6.30
2018-03-07T02:46:32.059Z,6.80
2018-03-07T02:47:32.271Z,6.30
2018-03-07T02:48:32.484Z,6.60
2018-03-07T02:49:32.697Z,6.30
2018-03-07T02:50:32.906Z,6.50
2018-03-07T02:51:33.118Z,6.60
2018-03-07T02:52:33.329Z,6.90
2018-03-07T02:53:33.540Z,6.30
2018-03-07T02:54:33.751Z,6.80
2018-03-07T02:55:33.962Z,6.50
2018-03-07T02:56:34.176Z,6.70
2018-03-07T02:57:34.385Z,6.20
2018-03-07T02:58:34.598Z,6.90
2018-03-07T02:59:34.809Z,6.80
2018-03-07T03:00:35.027Z,6.40
2018-03-07T03:01:35.231Z,6.90
2018-03-07T03:02:35.433Z,6.90
2018-03-07T03:03:35.646Z,6.30
2018-03-07T03:04:35.858Z,6.50
2018-03-07T03:05:36.069Z,7.10
2018-03-07T03:06:36.280Z,6.80
2018-03-07T03:07:36.492Z,6.60
2018-03-07T03:08:36.703Z,6.40
2018-03-07T03:09:36.915Z,6.80
2018-03-07T03:10:58.089Z,6.80
2018-03-07T03:11:37.337Z,6.30
2018-03-07T03:12:37.549Z,6.60
2018-03-07T03:13:37.762Z,6.70
2018-03-07T03:14:37.972Z,6.20
2018-03-07T03:15:38.185Z,6.30
2018-03-07T03:16:38.396Z,7.00
2018-03-07T03:17:38.609Z,6.10
2018-03-07T03:18:38.820Z,6.60
2018-03-07T03:19:39.031Z,6.30
2018-03-07T03:20:39.243Z,6.50
2018-03-07T03:21:39.455Z,6.50
2018-03-07T03:22:39.667Z,6.90
2018-03-07T03:23:39.878Z,6.50
2018-03-07T03:24:40.088Z,6.40
2018-03-07T03:25:40.302Z,5.90
2018-03-07T03:26:40.514Z,7.00
2018-03-07T03:27:40.726Z,6.10
2018-03-07T03:28:40.936Z,6.70
2018-03-07T03:29:41.148Z,6.60
2018-03-07T03:30:41.360Z,6.70
2018-03-07T03:31:41.572Z,6.50
2018-03-07T03:32:41.783Z,6.50
2018-03-07T03:33:41.995Z,6.30
2018-03-07T03:34:42.205Z,6.50
2018-03-07T03:35:42.417Z,6.50
2018-03-07T03:36:42.628Z,6.70
2018-03-07T03:37:42.840Z,6.80
2018-03-07T03:38:43.051Z,6.40
2018-03-07T03:39:43.262Z,6.60
2018-03-07T03:40:43.474Z,6.40
2018-03-07T03:41:43.686Z,6.30
2018-03-07T03:42:43.898Z,6.20
2018-03-07T03:43:44.110Z,6.50
2018-03-07T03:44:44.321Z,6.30
2018-03-07T03:45:44.585Z,6.50
2018-03-07T03:46:44.744Z,6.60
2018-03-07T03:47:44.967Z,6.60
2018-03-07T03:48:45.178Z,6.80
2018-03-07T03:49:45.389Z,6.20
2018-03-07T03:50:45.598Z,6.80
2018-03-07T03:51:45.795Z,6.90
2018-03-07T03:52:46.007Z,6.90
2018-03-07T03:53:46.218Z,6.80
2018-03-07T03:54:46.429Z,6.50
2018-03-07T03:55:46.641Z,6.90
2018-03-07T03:56:46.853Z,6.60
2018-03-07T03:57:47.065Z,6.20
2018-03-07T03:58:47.271Z,6.50
2018-03-07T03:59:47.489Z,6.90
2018-03-07T04:00:47.698Z,6.90
2018-03-07T04:01:47.910Z,7.00
2018-03-07T04:02:48.116Z,6.50
2018-03-07T04:03:48.332Z,6.80
2018-03-07T04:04:48.541Z,7.00
2018-03-07T04:05:48.752Z,6.60
2018-03-07T04:06:48.963Z,6.80
2018-03-07T04:07:49.175Z,6.50
2018-03-07T04:08:49.387Z,6.40
2018-03-07T04:09:49.597Z,6.50
2018-03-07T04:10:49.810Z,6.70
2018-03-07T04:11:50.022Z,6.80
2018-03-07T04:12:50.233Z,6.70
2018-03-07T04:13:50.446Z,6.90
2018-03-07T04:14:50.657Z,6.10
2018-03-07T04:15:50.868Z,6.70
2018-03-07T04:16:51.076Z,6.60
2018-03-07T04:17:51.288Z,6.60
2018-03-07T04:18:51.499Z,6.40
2018-03-07T04:19:51.711Z,6.50
2018-03-07T04:20:58.197Z,6.60
2018-03-07T04:21:59.341Z,6.70
2018-03-07T04:22:58.624Z,6.00
2018-03-07T04:23:59.766Z,6.70
2018-03-07T04:24:59.981Z,6.60
2018-03-07T04:26:00.215Z,6.70
2018-03-07T04:27:00.452Z,6.60
2018-03-07T04:27:53.551Z,7.10
2018-03-07T04:28:53.761Z,6.40
2018-03-07T04:29:53.972Z,6.80
2018-03-07T04:30:54.184Z,6.90
2018-03-07T04:31:54.396Z,6.40
2018-03-07T04:32:54.607Z,6.80
2018-03-07T04:33:54.818Z,6.40
2018-03-07T04:34:55.029Z,7.00
2018-03-07T04:35:55.240Z,6.60
2018-03-07T04:36:55.451Z,6.80
2018-03-07T04:37:55.663Z,6.60
2018-03-07T04:38:55.873Z,6.30
2018-03-07T04:39:56.086Z,6.90
2018-03-07T04:40:56.297Z,6.50
2018-03-07T04:41:56.508Z,6.80
2018-03-07T04:42:56.720Z,6.40
2018-03-07T04:43:56.931Z,6.70
2018-03-07T04:44:57.148Z,6.50
2018-03-07T04:45:57.355Z,6.30
2018-03-07T04:46:57.566Z,6.10
2018-03-07T04:47:57.778Z,6.50
2018-03-07T04:48:57.990Z,6.70
2018-03-07T04:49:58.201Z,6.90
2018-03-07T04:50:58.413Z,6.40
2018-03-07T04:51:58.624Z,6.30
2018-03-07T04:52:58.835Z,6.90
2018-03-07T04:53:59.047Z,6.80
2018-03-07T04:54:59.259Z,6.50
2018-03-07T04:55:59.471Z,6.90
2018-03-07T04:56:59.682Z,6.00
2018-03-07T04:57:59.893Z,6.20
2018-03-07T04:59:00.105Z,6.50
2018-03-07T05:00:00.323Z,6.70
2018-03-07T05:01:00.538Z,6.90
2018-03-07T05:02:00.750Z,6.40
2018-03-07T05:03:00.961Z,6.30
2018-03-07T05:04:01.176Z,6.80
2018-03-07T05:05:01.385Z,6.30
2018-03-07T05:06:01.596Z,6.20
2018-03-07T05:07:01.808Z,6.30
2018-03-07T05:08:02.019Z,6.90
2018-03-07T05:09:02.232Z,6.70
2018-03-07T05:10:02.443Z,6.40
2018-03-07T05:11:02.654Z,6.80
2018-03-07T05:12:02.867Z,6.70
2018-03-07T05:13:03.078Z,6.60
2018-03-07T05:14:03.289Z,6.50
2018-03-07T05:15:03.502Z,6.30
2018-03-07T05:16:03.712Z,6.70
2018-03-07T05:17:03.922Z,6.80
2018-03-07T05:18:04.134Z,6.10
2018-03-07T05:19:04.340Z,6.80
2018-03-07T05:20:04.547Z,6.70
2018-03-07T05:21:04.760Z,6.80
2018-03-07T05:22:04.969Z,6.60
2018-03-07T05:23:05.185Z,6.80
2018-03-07T05:24:05.393Z,6.80
2018-03-07T05:25:05.604Z,6.20
2018-03-07T05:26:05.815Z,6.60
2018-03-07T05:27:06.028Z,6.30
2018-03-07T05:28:06.238Z,6.50
2018-03-07T05:29:06.451Z,6.70
2018-03-07T05:30:06.662Z,6.80
2018-03-07T05:31:06.873Z,6.30
2018-03-07T05:32:07.085Z,6.50
2018-03-07T05:33:07.309Z,6.50
2018-03-07T05:34:07.521Z,6.80
2018-03-07T05:35:07.732Z,6.50
2018-03-07T05:36:07.944Z,6.80
2018-03-07T05:37:08.161Z,6.40
2018-03-07T05:38:08.357Z,6.60
2018-03-07T05:39:08.571Z,6.50
2018-03-07T05:40:08.782Z,6.30
2018-03-07T05:41:08.991Z,6.50
2018-03-07T05:42:09.204Z,6.80
2018-03-07T05:43:09.428Z,7.00
2018-03-07T05:44:09.628Z,6.50
2018-03-07T05:45:09.840Z,6.30
2018-03-07T05:46:10.051Z,6.90
2018-03-07T05:47:10.263Z,6.70
2018-03-07T05:48:10.474Z,6.10
2018-03-07T05:49:10.690Z,6.30
2018-03-07T05:50:10.897Z,6.70
2018-03-07T05:51:11.109Z,6.40
2018-03-07T05:52:11.320Z,6.00
2018-03-07T05:53:11.532Z,6.50
2018-03-07T05:54:11.742Z,6.80
2018-03-07T05:55:11.954Z,6.50
2018-03-07T05:56:12.165Z,6.40
2018-03-07T05:57:12.377Z,6.40
2018-03-07T05:58:12.589Z,7.30
2018-03-07T05:59:12.801Z,6.40
2018-03-07T06:00:13.012Z,6.10
2018-03-07T06:01:13.224Z,6.70
2018-03-07T06:02:13.435Z,6.70
2018-03-07T06:03:13.646Z,6.80
2018-03-07T06:04:13.858Z,6.60
2018-03-07T06:05:14.069Z,6.80
2018-03-07T06:06:14.280Z,6.50
2018-03-07T06:07:14.492Z,7.20
2018-03-07T06:08:14.716Z,6.40
2018-03-07T06:09:14.907Z,6.70
2018-03-07T06:10:15.119Z,6.30
2018-03-07T06:11:15.331Z,6.80
2018-03-07T06:12:15.542Z,6.90
2018-03-07T06:13:15.753Z,6.40
2018-03-07T06:14:15.966Z,6.70
2018-03-07T06:15:16.178Z,6.40
2018-03-07T06:16:16.388Z,6.80
2018-03-07T06:17:16.600Z,6.50
2018-03-07T06:18:16.812Z,6.70
2018-03-07T06:19:17.021Z,6.70
2018-03-07T06:20:17.240Z,6.50
2018-03-07T06:21:17.444Z,6.60
2018-03-07T06:22:17.655Z,6.30
2018-03-07T06:23:17.910Z,6.30
2018-03-07T06:24:39.014Z,7.20
2018-03-07T06:25:18.295Z,6.30
2018-03-07T06:26:18.506Z,6.70
2018-03-07T06:27:18.716Z,6.40
2018-03-07T06:28:18.932Z,6.70
2018-03-07T06:29:19.140Z,6.60
2018-03-07T06:30:19.350Z,6.60
2018-03-07T06:31:19.562Z,6.10
2018-03-07T06:32:19.774Z,6.30
2018-03-07T06:33:19.987Z,6.50
2018-03-07T06:34:20.200Z,6.50
2018-03-07T06:35:20.413Z,6.30
2018-03-07T06:36:20.623Z,6.60
2018-03-07T06:37:20.834Z,6.50
2018-03-07T06:38:21.046Z,6.50
2018-03-07T06:39:21.257Z,6.10
2018-03-07T06:40:21.469Z,6.20
2018-03-07T06:41:21.687Z,6.40
2018-03-07T06:42:21.893Z,6.00
2018-03-07T06:43:22.104Z,6.60
2018-03-07T06:44:22.315Z,6.90
2018-03-07T06:45:22.528Z,6.50
2018-03-07T06:46:22.740Z,6.40
2018-03-07T06:47:22.950Z,6.50
2018-03-07T06:48:23.161Z,6.50
2018-03-07T06:49:23.371Z,6.80
2018-03-07T06:50:23.582Z,6.80
2018-03-07T06:51:23.806Z,6.10
2018-03-07T06:52:24.000Z,6.70
2018-03-07T06:53:24.211Z,6.80
2018-03-07T06:54:24.425Z,6.30
2018-03-07T06:55:24.634Z,6.40
2018-03-07T06:56:24.845Z,6.20
2018-03-07T06:57:25.058Z,6.10
2018-03-07T06:58:25.269Z,6.80
2018-03-07T06:59:25.485Z,6.80
2018-03-07T07:00:25.696Z,6.90
2018-03-07T07:01:25.906Z,6.50
2018-03-07T07:02:26.118Z,6.60
2018-03-07T07:03:26.333Z,6.60
2018-03-07T07:04:33.672Z,6.30
2018-03-07T07:05:33.904Z,6.30
2018-03-07T07:06:27.027Z,6.80
2018-03-07T07:07:34.358Z,6.70
2018-03-07T07:08:34.591Z,6.60
2018-03-07T07:09:34.836Z,6.70
2018-03-07T07:10:35.088Z,6.90
2018-03-07T07:11:35.315Z,6.80
2018-03-07T07:12:28.422Z,6.50
2018-03-07T07:13:28.625Z,6.70
2018-03-07T07:14:28.837Z,6.70
2018-03-07T07:15:29.045Z,6.90
2018-03-07T07:16:29.256Z,6.50
2018-03-07T07:17:29.467Z,6.60
2018-03-07T07:18:29.678Z,6.60
2018-03-07T07:19:29.889Z,6.10
2018-03-07T07:20:30.102Z,6.20
2018-03-07T07:21:30.310Z,6.70
2018-03-07T07:22:30.522Z,6.40
2018-03-07T07:23:30.734Z,6.70
2018-03-07T07:24:30.945Z,6.50
2018-03-07T07:25:31.156Z,6.80
2018-03-07T07:26:31.368Z,6.60
2018-03-07T07:27:31.570Z,6.80
2018-03-07T07:28:31.789Z,6.30
2018-03-07T07:29:32.000Z,6.20
2018-03-07T07:30:32.212Z,6.20
2018-03-07T07:31:32.441Z,6.80
2018-03-07T07:32:32.645Z,6.30
2018-03-07T07:33:32.856Z,6.50
2018-03-07T07:34:33.067Z,6.50
2018-03-07T07:35:33.279Z,6.20
2018-03-07T07:36:33.487Z,6.40
2018-03-07T07:37:33.702Z,6.70
2018-03-07T07:38:33.912Z,6.70
2018-03-07T07:39:34.125Z,6.60
2018-03-07T07:40:34.334Z,6.20
2018-03-07T07:41:34.546Z,6.40
2018-03-07T07:42:34.757Z,6.60
2018-03-07T07:43:34.967Z,6.60
2018-03-07T07:44:35.180Z,6.20
2018-03-07T07:45:35.393Z,6.30
2018-03-07T07:46:35.603Z,6.90
2018-03-07T07:47:35.815Z,6.30
2018-03-07T07:48:36.028Z,6.40
2018-03-07T07:49:36.235Z,6.60
2018-03-07T07:50:36.452Z,6.70
2018-03-07T07:51:36.676Z,6.10
2018-03-07T07:52:36.883Z,6.40
2018-03-07T07:53:37.096Z,6.70
2018-03-07T07:54:37.315Z,6.40
2018-03-07T07:55:37.502Z,6.50
2018-03-07T07:56:37.712Z,6.40
2018-03-07T07:57:37.938Z,6.20
2018-03-07T07:58:38.143Z,6.00
2018-03-07T07:59:38.346Z,6.60
2018-03-07T08:00:38.557Z,6.80
2018-03-07T08:01:38.768Z,6.30
2018-03-07T08:02:38.979Z,6.80
2018-03-07T08:03:39.190Z,6.50
2018-03-07T08:04:39.402Z,6.70
2018-03-07T08:05:39.615Z,6.70
2018-03-07T08:06:39.829Z,6.50
2018-03-07T08:07:40.039Z,6.30
2018-03-07T08:08:40.249Z,6.50
2018-03-07T08:09:40.462Z,6.40
2018-03-07T08:10:40.673Z,6.50
2018-03-07T08:11:40.885Z,6.30
2018-03-07T08:12:41.096Z,6.40
2018-03-07T08:13:41.297Z,6.20
2018-03-07T08:14:41.515Z,6.10
2018-03-07T08:15:41.736Z,6.40
2018-03-07T08:16:42.316Z,6.10
2018-03-07T08:17:42.158Z,6.40
2018-03-07T08:18:42.373Z,6.30
2018-03-07T08:19:42.954Z,6.10
2018-03-07T08:20:42.794Z,6.50
2018-03-07T08:21:43.005Z,6.50
2018-03-07T08:22:43.214Z,6.20
2018-03-07T08:23:43.427Z,6.40
2018-03-07T08:24:43.637Z,6.40
2018-03-07T08:25:43.850Z,6.70
2018-03-07T08:26:44.061Z,6.00
2018-03-07T08:27:44.289Z,6.40
2018-03-07T08:28:44.487Z,6.30
2018-03-07T08:29:44.697Z,6.30
2018-03-07T08:30:44.924Z,6.40
2018-03-07T08:31:45.136Z,6.90
2018-03-07T08:32:45.352Z,6.50
2018-03-07T08:33:45.558Z,6.50
2018-03-07T08:34:45.765Z,6.20
2018-03-07T08:35:45.991Z,6.60
2018-03-07T08:36:46.183Z,5.90
2018-03-07T08:37:46.396Z,6.10
2018-03-07T08:38:46.608Z,6.10
2018-03-07T08:39:46.823Z,6.70
2018-03-07T08:40:47.036Z,6.60
2018-03-07T08:41:47.248Z,6.30
2018-03-07T08:42:47.461Z,6.50
2018-03-07T08:43:47.671Z,6.10
2018-03-07T08:44:47.885Z,6.70
2018-03-07T08:45:48.096Z,6.50
2018-03-07T08:46:48.308Z,6.80
2018-03-07T08:47:48.519Z,6.70
2018-03-07T08:48:48.731Z,6.80
2018-03-07T08:49:48.955Z,6.80
2018-03-07T08:50:49.168Z,7.20
2018-03-07T08:51:49.376Z,6.70
2018-03-07T08:52:49.589Z,6.40
2018-03-07T08:53:49.819Z,7.00
2018-03-07T08:54:50.019Z,6.60
2018-03-07T08:55:50.227Z,6.50
2018-03-07T08:56:50.424Z,5.90
2018-03-07T08:57:50.637Z,6.30
2018-03-07T08:58:50.845Z,5.90
2018-03-07T08:59:51.057Z,6.50
2018-03-07T09:00:51.268Z,6.20
2018-03-07T09:01:51.481Z,6.00
2018-03-07T09:02:51.697Z,7.50
2018-03-07T09:03:51.896Z,6.30
2018-03-07T09:04:52.110Z,5.90
2018-03-07T09:05:52.320Z,6.30
2018-03-07T09:06:52.531Z,8.00
2018-03-07T09:07:52.743Z,6.20
2018-03-07T09:08:52.955Z,6.30
2018-03-07T09:09:53.172Z,6.00
2018-03-07T09:10:53.377Z,6.60
2018-03-07T09:11:53.592Z,6.10
2018-03-07T09:12:53.796Z,6.40
2018-03-07T09:13:54.050Z,5.90
2018-03-07T09:14:54.216Z,6.30
2018-03-07T09:15:54.429Z,5.90
2018-03-07T09:16:54.640Z,5.90
2018-03-07T09:17:54.853Z,6.40
2018-03-07T09:18:55.065Z,6.60
2018-03-07T09:19:55.277Z,6.40
2018-03-07T09:20:55.489Z,6.00
2018-03-07T09:21:55.700Z,7.60
2018-03-07T09:22:55.913Z,6.40
2018-03-07T09:23:56.126Z,6.30
2018-03-07T09:24:56.340Z,6.10
2018-03-07T09:25:56.551Z,6.20
2018-03-07T09:26:56.762Z,7.20
2018-03-07T09:27:56.974Z,6.00
2018-03-07T09:28:57.229Z,6.20
2018-03-07T09:29:57.404Z,7.30
2018-03-07T09:30:57.611Z,6.10
2018-03-07T09:31:57.817Z,6.50
2018-03-07T09:32:58.034Z,6.00
2018-03-07T09:33:58.249Z,6.40
2018-03-07T09:34:58.514Z,6.60
2018-03-07T09:35:58.688Z,6.20
2018-03-07T09:36:58.905Z,6.20
2018-03-07T09:37:59.112Z,6.40
2018-03-07T09:38:59.332Z,5.70
2018-03-07T09:39:59.535Z,5.90
2018-03-07T09:40:59.738Z,5.90
2018-03-07T09:41:59.948Z,7.50
2018-03-07T09:43:00.164Z,7.30
2018-03-07T09:44:00.378Z,6.50
2018-03-07T09:45:00.580Z,6.70
2018-03-07T09:46:00.795Z,6.80
2018-03-07T09:47:01.004Z,6.70
2018-03-07T09:48:01.216Z,6.20
2018-03-07T09:49:01.429Z,6.40
2018-03-07T09:50:08.758Z,6.90
2018-03-07T09:51:08.986Z,6.20
2018-03-07T09:52:09.218Z,5.90
2018-03-07T09:53:09.459Z,6.20
2018-03-07T09:54:09.896Z,6.00
2018-03-07T09:55:10.098Z,6.00
2018-03-07T09:56:10.197Z,6.30
2018-03-07T09:57:10.343Z,6.30
2018-03-07T09:58:03.448Z,6.20
2018-03-07T09:59:03.665Z,5.60
2018-03-07T10:00:03.876Z,6.40
2018-03-07T10:01:04.074Z,6.00
2018-03-07T10:02:04.328Z,6.20
2018-03-07T10:03:04.494Z,5.50
2018-03-07T10:04:04.708Z,6.00
2018-03-07T10:05:04.917Z,5.60
2018-03-07T10:06:05.128Z,6.10
2018-03-07T10:07:05.378Z,5.90
2018-03-07T10:08:05.552Z,5.90
2018-03-07T10:09:05.763Z,6.40
2018-03-07T10:10:05.974Z,6.40
2018-03-07T10:11:06.185Z,5.80
2018-03-07T10:12:06.397Z,5.50
2018-03-07T10:13:06.609Z,5.70
2018-03-07T10:14:06.828Z,5.60
2018-03-07T10:15:07.023Z,5.80
2018-03-07T10:16:07.234Z,5.80
2018-03-07T10:17:07.446Z,6.20
2018-03-07T10:18:07.654Z,6.00
2018-03-07T10:19:07.866Z,5.60
2018-03-07T10:20:08.078Z,5.70
2018-03-07T10:21:08.290Z,5.70
2018-03-07T10:22:08.503Z,5.90
2018-03-07T10:23:08.715Z,5.60
2018-03-07T10:24:08.927Z,5.30
2018-03-07T10:25:09.139Z,5.70
2018-03-07T10:26:09.352Z,5.50
2018-03-07T10:27:09.565Z,5.40
2018-03-07T10:28:09.775Z,5.60
2018-03-07T10:29:09.986Z,5.40
2018-03-07T10:30:10.198Z,5.80
2018-03-07T10:31:10.409Z,5.50
2018-03-07T10:32:10.621Z,6.30
2018-03-07T10:33:10.832Z,5.40
2018-03-07T10:34:11.040Z,9.50
2018-03-07T10:35:11.265Z,5.70
2018-03-07T10:36:11.475Z,5.20
2018-03-07T10:37:11.686Z,6.30
2018-03-07T10:38:11.897Z,5.70
2018-03-07T10:39:12.105Z,5.50
2018-03-07T10:40:12.316Z,5.50
2018-03-07T10:41:12.525Z,5.40
2018-03-07T10:42:12.741Z,5.40
2018-03-07T10:43:12.948Z,5.40
2018-03-07T10:44:13.160Z,5.20
2018-03-07T10:45:13.375Z,5.60
2018-03-07T10:46:13.597Z,6.70
2018-03-07T10:47:13.807Z,5.10
2018-03-07T10:48:14.018Z,5.50
2018-03-07T10:49:14.226Z,5.00
2018-03-07T10:50:14.440Z,5.50
2018-03-07T10:51:14.655Z,5.30
2018-03-07T10:52:14.912Z,5.60
2018-03-07T10:53:15.076Z,5.20
2018-03-07T10:54:15.289Z,5.00
2018-03-07T10:55:15.501Z,5.90
2018-03-07T10:56:15.711Z,5.10
2018-03-07T10:57:15.926Z,5.30
2018-03-07T10:58:16.166Z,5.60
2018-03-07T10:59:16.383Z,5.30
2018-03-07T11:00:16.546Z,5.60
2018-03-07T11:01:16.759Z,8.90
2018-03-07T11:02:16.976Z,5.20
2018-03-07T11:03:17.244Z,5.30
2018-03-07T11:04:17.384Z,4.80
2018-03-07T11:05:17.594Z,5.00
2018-03-07T11:06:17.807Z,5.60
2018-03-07T11:07:18.019Z,5.40
2018-03-07T11:08:18.231Z,4.90
2018-03-07T11:09:18.442Z,5.20
2018-03-07T11:10:18.653Z,5.00
2018-03-07T11:11:18.865Z,5.00
2018-03-07T11:12:19.077Z,5.10
2018-03-07T11:13:19.278Z,5.40
2018-03-07T11:14:19.497Z,4.90
2018-03-07T11:15:19.710Z,4.80
2018-03-07T11:16:19.926Z,4.90
2018-03-07T11:17:20.134Z,5.00
2018-03-07T11:18:20.345Z,4.90
2018-03-07T11:19:20.554Z,5.10
2018-03-07T11:20:20.769Z,4.60
2018-03-07T11:21:20.981Z,4.90
2018-03-07T11:22:21.192Z,4.90
2018-03-07T11:23:21.400Z,5.20
2018-03-07T11:24:21.622Z,5.20
2018-03-07T11:25:21.826Z,5.10
2018-03-07T11:26:22.039Z,5.10
2018-03-07T11:27:22.249Z,5.30
2018-03-07T11:28:22.461Z,5.60
2018-03-07T11:29:22.663Z,4.80
2018-03-07T11:30:22.900Z,5.00
2018-03-07T11:31:23.102Z,5.10
2018-03-07T11:32:23.312Z,4.70
2018-03-07T11:33:23.525Z,4.80
2018-03-07T11:34:23.762Z,4.80
2018-03-07T11:35:23.974Z,5.10
2018-03-07T11:36:24.150Z,5.20
2018-03-07T11:37:24.424Z,5.10
2018-03-07T11:38:24.636Z,4.80
2018-03-07T11:39:24.812Z,4.90
2018-03-07T11:40:25.084Z,4.60
2018-03-07T11:41:25.244Z,5.20
2018-03-07T11:42:25.425Z,4.60
2018-03-07T11:43:25.708Z,4.80
2018-03-07T11:44:25.915Z,4.80
2018-03-07T11:45:26.114Z,4.70
2018-03-07T11:46:26.318Z,5.10
2018-03-07T11:47:26.600Z,5.10
2018-03-07T11:48:26.743Z,4.90
2018-03-07T11:49:26.954Z,4.60
2018-03-07T11:50:27.170Z,4.60
2018-03-07T11:51:27.428Z,4.70
2018-03-07T11:52:27.603Z,4.70
2018-03-07T11:53:27.888Z,4.80
2018-03-07T11:54:28.039Z,4.40
2018-03-07T11:55:28.268Z,4.70
2018-03-07T11:56:28.480Z,4.90
2018-03-07T11:57:28.687Z,4.50
2018-03-07T11:58:28.910Z,4.60
2018-03-07T11:59:29.126Z,4.40
2018-03-07T12:00:29.342Z,4.60
2018-03-07T12:01:29.558Z,4.30
2018-03-07T12:02:29.742Z,4.60
2018-03-07T12:03:29.954Z,4.70
2018-03-07T12:04:30.161Z,4.50
2018-03-07T12:05:30.372Z,4.80
2018-03-07T12:06:30.584Z,4.50
2018-03-07T12:07:30.789Z,4.30
2018-03-07T12:08:30.991Z,4.50
2018-03-07T12:09:31.200Z,4.90
2018-03-07T12:10:31.412Z,4.70
2018-03-07T12:11:31.622Z,4.70
2018-03-07T12:12:31.838Z,4.60
2018-03-07T12:13:32.052Z,4.60
2018-03-07T12:14:32.265Z,4.40
2018-03-07T12:15:32.481Z,4.40
2018-03-07T12:16:32.697Z,4.20
2018-03-07T12:17:32.905Z,4.30
2018-03-07T12:18:33.112Z,5.00
2018-03-07T12:19:33.366Z,4.50
2018-03-07T12:20:33.532Z,4.60
2018-03-07T12:21:33.747Z,4.50
2018-03-07T12:22:33.959Z,4.60
2018-03-07T12:23:34.169Z,4.80
2018-03-07T12:24:34.384Z,4.40
2018-03-07T12:25:34.596Z,4.10
2018-03-07T12:26:34.809Z,4.20
2018-03-07T12:27:35.052Z,4.20
2018-03-07T12:28:35.230Z,4.50
2018-03-07T12:29:35.439Z,4.30
2018-03-07T12:30:35.661Z,4.00
2018-03-07T12:31:35.874Z,4.40
2018-03-07T12:32:36.083Z,4.50
2018-03-07T12:33:36.294Z,4.70
2018-03-07T12:34:36.505Z,4.00
2018-03-07T12:35:36.759Z,4.60
2018-03-07T12:36:43.116Z,4.40
2018-03-07T12:37:43.273Z,4.00
2018-03-07T12:38:43.876Z,3.80
2018-03-07T12:39:45.052Z,4.10
2018-03-07T12:40:45.286Z,4.30
2018-03-07T12:41:45.530Z,4.30
2018-03-07T12:42:45.760Z,4.40
2018-03-07T12:43:38.866Z,4.50
2018-03-07T12:44:39.075Z,4.40
2018-03-07T12:45:39.294Z,3.90
2018-03-07T12:46:39.506Z,4.90
2018-03-07T12:47:39.742Z,4.20
2018-03-07T12:48:39.935Z,4.20
2018-03-07T12:49:40.125Z,4.20
2018-03-07T12:50:40.344Z,4.50
2018-03-07T12:51:40.552Z,4.20
2018-03-07T12:52:40.766Z,4.20
2018-03-07T12:53:40.982Z,4.20
2018-03-07T12:54:41.192Z,4.70
2018-03-07T12:55:41.407Z,4.10
2018-03-07T12:56:41.620Z,5.10
2018-03-07T12:57:41.833Z,4.80
2018-03-07T12:58:42.046Z,4.00
2018-03-07T12:59:42.260Z,6.60
2018-03-07T13:00:42.476Z,4.10
2018-03-07T13:01:42.680Z,8.70
2018-03-07T13:02:42.890Z,4.20
2018-03-07T13:03:43.104Z,4.00
2018-03-07T13:04:43.317Z,4.70
2018-03-07T13:05:43.531Z,4.20
2018-03-07T13:06:43.735Z,5.10
2018-03-07T13:07:43.947Z,4.10
2018-03-07T13:08:44.160Z,3.80
2018-03-07T13:09:44.371Z,4.20
2018-03-07T13:10:44.583Z,3.90
2018-03-07T13:11:44.796Z,4.10
2018-03-07T13:12:45.005Z,4.20
2018-03-07T13:13:45.219Z,3.80
2018-03-07T13:14:45.425Z,4.00
2018-03-07T13:15:45.642Z,3.80
2018-03-07T13:16:45.854Z,4.00
2018-03-07T13:17:46.066Z,4.90
2018-03-07T13:18:46.273Z,4.60
2018-03-07T13:19:46.474Z,3.90
2018-03-07T13:20:46.686Z,4.00
2018-03-07T13:21:46.897Z,3.70
2018-03-07T13:22:47.110Z,6.00